createdAt,value
2023-04-02T00:00:10.963Z,14.88
2023-04-02T00:03:00.777Z,15.85
2023-04-02T00:05:34.659Z,14.73
2023-04-02T00:08:04.683Z,13.10
2023-04-02T00:10:36.817Z,16.45
2023-04-02T00:13:09.391Z,13.27
2023-04-02T00:15:37.375Z,14.82
2023-04-02T00:18:04.649Z,15.20
2023-04-02T00:20:36.149Z,13.77
2023-04-02T00:23:03.357Z,14.55
2023-04-02T00:25:34.200Z,15.55
2023-04-02T00:28:00.903Z,15.27
2023-04-02T00:30:28.119Z,15.13
2023-04-02T00:32:54.803Z,13.63
2023-04-02T00:35:26.868Z,14.63
2023-04-02T00:37:54.085Z,13.90
2023-04-02T00:40:24.838Z,14.82
2023-04-02T00:42:53.821Z,14.00
2023-04-02T00:45:28.831Z,12.55
2023-04-02T00:47:57.050Z,13.17
2023-04-02T00:50:23.540Z,14.43
2023-04-02T00:52:53.282Z,13.85
2023-04-02T00:55:36.480Z,12.75
2023-04-02T00:58:04.327Z,16.15
2023-04-02T01:00:36.367Z,12.02
2023-04-02T01:03:18.316Z,14.15
2023-04-02T01:05:50.422Z,15.45
2023-04-02T01:08:28.901Z,12.50
2023-04-02T01:11:10.506Z,16.33
2023-04-02T01:13:46.272Z,14.35
2023-04-02T01:16:31.284Z,12.75
2023-04-02T01:19:33.882Z,14.05
2023-04-02T01:22:11.955Z,14.35
2023-04-02T01:24:38.630Z,14.57
2023-04-02T01:27:14.852Z,14.25
2023-04-02T01:29:49.837Z,13.50
2023-04-02T01:32:19.812Z,14.03
2023-04-02T01:34:49.529Z,13.70
2023-04-02T01:37:53.221Z,13.18
2023-04-02T01:40:19.912Z,13.13
2023-04-02T01:42:58.458Z,11.63
2023-04-02T01:45:25.535Z,12.93
2023-04-02T01:47:52.624Z,14.38
2023-04-02T01:50:37.164Z,12.70
2023-04-02T01:53:07.174Z,13.10
2023-04-02T01:55:42.088Z,12.48
2023-04-02T01:58:14.124Z,15.15
2023-04-02T02:01:12.381Z,12.50
2023-04-02T02:03:42.601Z,14.07
2023-04-02T02:06:14.274Z,14.27
2023-04-02T02:08:53.668Z,12.57
2023-04-02T02:11:23.358Z,14.82
2023-04-02T02:14:12.969Z,13.18
2023-04-02T02:16:43.716Z,13.35
2023-04-02T02:19:35.726Z,15.27
2023-04-02T02:22:29.880Z,12.15
2023-04-02T02:24:59.037Z,12.93
2023-04-02T02:27:28.658Z,14.05
2023-04-02T02:30:22.381Z,14.63
2023-04-02T02:33:07.025Z,13.63
2023-04-02T02:35:39.528Z,13.43
2023-04-02T02:38:13.595Z,13.73
2023-04-02T02:40:46.231Z,15.52
2023-04-02T02:43:14.808Z,16.15
2023-04-02T02:45:42.879Z,14.70
2023-04-02T02:48:14.000Z,14.07
2023-04-02T02:50:41.799Z,16.17
2023-04-02T02:53:17.804Z,13.43
2023-04-02T03:00:42.394Z,13.80
2023-04-02T03:03:14.572Z,13.60
2023-04-02T03:05:41.995Z,14.90
2023-04-02T03:08:24.139Z,14.43
2023-04-02T03:10:56.870Z,14.90
2023-04-02T03:13:29.308Z,14.10
2023-04-02T03:16:07.594Z,13.07
2023-04-02T03:18:54.543Z,15.98
2023-04-02T03:21:21.031Z,14.80
2023-04-02T03:24:20.457Z,15.35
2023-04-02T03:26:56.180Z,16.40
2023-04-02T03:29:27.133Z,15.57
2023-04-02T03:32:12.390Z,13.82
2023-04-02T03:34:45.522Z,13.82
2023-04-02T03:37:22.105Z,13.18
2023-04-02T03:39:51.603Z,13.82
2023-04-02T03:42:25.140Z,14.65
2023-04-02T03:45:03.295Z,13.93
2023-04-02T03:47:36.775Z,12.93
2023-04-02T03:50:22.560Z,13.07
2023-04-02T03:52:49.652Z,14.60
2023-04-02T03:55:21.449Z,14.57
2023-04-02T03:58:07.795Z,13.40
2023-04-02T04:00:42.375Z,14.93
2023-04-02T04:03:20.033Z,14.23
2023-04-02T04:06:21.342Z,13.40
2023-04-02T04:08:55.969Z,10.93
2023-04-02T04:11:27.474Z,13.65
2023-04-02T04:14:33.769Z,13.40
2023-04-02T04:17:13.918Z,14.23
2023-04-02T04:19:55.582Z,13.65
2023-04-02T04:22:33.900Z,11.88
2023-04-02T04:25:03.777Z,10.30
2023-04-02T04:27:36.303Z,13.75
2023-04-02T04:30:28.489Z,13.85
2023-04-02T04:33:10.912Z,10.05
2023-04-02T04:35:40.347Z,14.55
2023-04-02T04:38:18.239Z,13.45
2023-04-02T04:41:25.514Z,11.35
2023-04-02T04:44:01.107Z,15.15
2023-04-02T04:46:34.169Z,12.70
2023-04-02T04:49:14.080Z,11.95
2023-04-02T04:51:57.395Z,13.23
2023-04-02T04:54:27.587Z,13.20
2023-04-02T04:57:03.429Z,11.77
2023-04-02T04:59:43.820Z,12.75
2023-04-02T05:02:17.436Z,12.07
2023-04-02T05:04:49.866Z,11.23
2023-04-02T05:07:23.126Z,11.45
2023-04-02T05:09:58.861Z,11.23
2023-04-02T05:12:54.650Z,11.60
2023-04-02T05:15:36.276Z,11.55
2023-04-02T05:18:23.266Z,10.95
2023-04-02T05:21:03.912Z,11.27
2023-04-02T05:24:13.982Z,11.45
2023-04-02T05:26:45.759Z,11.27
2023-04-02T05:29:18.200Z,9.95
2023-04-02T05:31:49.628Z,10.63
2023-04-02T05:34:25.425Z,11.35
2023-04-02T05:36:51.977Z,11.88
2023-04-02T05:39:22.819Z,12.50
2023-04-02T05:42:04.403Z,19.00
2023-04-02T05:44:40.814Z,20.20
2023-04-02T05:47:11.449Z,16.80
2023-04-02T05:49:47.918Z,14.40
2023-04-02T05:52:20.398Z,12.65
2023-04-02T05:54:55.008Z,12.68
2023-04-02T05:57:39.564Z,9.40
2023-04-02T06:00:18.249Z,10.57
2023-04-02T06:03:07.781Z,10.30
2023-04-02T06:05:41.163Z,10.73
2023-04-02T06:08:26.576Z,9.25
2023-04-02T06:11:00.402Z,12.05
2023-04-02T06:13:27.992Z,13.15
2023-04-02T06:15:54.550Z,9.63
2023-04-02T06:18:25.472Z,10.80
2023-04-02T06:20:52.755Z,10.65
2023-04-02T06:23:25.555Z,10.40
2023-04-02T06:25:59.319Z,9.70
2023-04-02T06:28:47.028Z,10.48
2023-04-02T06:31:19.923Z,10.65
2023-04-02T06:33:46.534Z,9.45
2023-04-02T06:36:13.248Z,9.48
2023-04-02T06:38:40.934Z,8.40
2023-04-02T06:41:27.616Z,9.50
2023-04-02T06:44:01.781Z,8.60
2023-04-02T06:46:37.887Z,9.93
2023-04-02T06:49:18.390Z,8.95
2023-04-02T06:51:46.737Z,8.48
2023-04-02T06:54:16.106Z,7.72
2023-04-02T06:56:49.614Z,10.63
2023-04-02T06:59:17.342Z,10.32
2023-04-02T07:01:52.712Z,8.80
2023-04-02T07:04:20.914Z,9.75
2023-04-02T07:06:47.913Z,8.50
2023-04-02T07:09:14.544Z,8.15
2023-04-02T07:11:41.305Z,8.00
2023-04-02T07:14:11.374Z,8.23
2023-04-02T07:16:37.956Z,9.63
2023-04-02T07:19:04.490Z,8.13
2023-04-02T07:21:31.335Z,7.20
2023-04-02T07:23:58.238Z,7.63
2023-04-02T07:26:27.934Z,7.63
2023-04-02T07:28:56.217Z,8.60
2023-04-02T07:31:26.045Z,7.40
2023-04-02T07:33:55.671Z,7.25
2023-04-02T07:36:23.571Z,6.97
2023-04-02T07:38:50.763Z,7.57
2023-04-02T07:41:19.545Z,8.30
2023-04-02T07:43:46.252Z,6.60
2023-04-02T07:46:16.609Z,8.00
2023-04-02T07:48:44.156Z,6.78
2023-04-02T07:51:26.676Z,6.40
2023-04-02T07:53:56.063Z,6.38
2023-04-02T07:56:24.805Z,5.55
2023-04-02T07:58:51.584Z,6.00
2023-04-02T08:01:19.889Z,6.80
2023-04-02T08:03:47.057Z,6.95
2023-04-02T08:06:14.055Z,5.43
2023-04-02T08:08:40.802Z,6.25
2023-04-02T08:11:08.205Z,6.70
2023-04-02T08:13:35.033Z,6.68
2023-04-02T08:16:02.243Z,6.00
2023-04-02T08:18:30.058Z,6.57
2023-04-02T08:20:57.326Z,5.80
2023-04-02T08:23:24.350Z,6.85
2023-04-02T08:25:51.158Z,6.93
2023-04-02T08:28:17.974Z,7.70
2023-04-02T08:30:44.650Z,7.05
2023-04-02T08:33:11.566Z,6.75
2023-04-02T08:35:38.594Z,7.28
2023-04-02T08:38:05.813Z,6.45
2023-04-02T08:40:41.683Z,6.80
2023-04-02T08:46:04.135Z,8.07
2023-04-02T08:48:33.876Z,8.20
2023-04-02T08:51:01.870Z,7.20
2023-04-02T08:53:33.006Z,6.18
2023-04-02T08:56:25.684Z,7.75
2023-04-02T08:58:59.402Z,7.03
2023-04-02T09:01:34.565Z,7.45
2023-04-02T09:04:03.415Z,7.18
2023-04-02T09:06:30.333Z,6.88
2023-04-02T09:08:58.588Z,6.43
2023-04-02T09:11:34.382Z,7.60
2023-04-02T09:14:05.919Z,7.03
2023-04-02T09:17:09.843Z,8.43
2023-04-02T09:19:40.361Z,7.80
2023-04-02T09:22:16.568Z,7.45
2023-04-02T09:24:43.248Z,6.35
2023-04-02T09:27:21.430Z,8.30
2023-04-02T09:29:51.833Z,8.00
2023-04-02T09:32:36.517Z,7.95
2023-04-02T09:35:25.480Z,8.38
2023-04-02T09:38:31.788Z,7.45
2023-04-02T09:40:58.769Z,7.60
2023-04-02T09:43:30.333Z,8.50
2023-04-02T09:46:01.637Z,9.48
2023-04-02T09:48:39.387Z,7.82
2023-04-02T09:51:14.379Z,7.70
2023-04-02T09:53:46.066Z,7.90
2023-04-02T09:56:14.667Z,7.90
2023-04-02T09:58:42.610Z,8.35
2023-04-02T10:01:28.128Z,6.18
2023-04-02T10:03:55.347Z,6.97
2023-04-02T10:06:22.297Z,6.68
2023-04-02T10:08:48.928Z,7.47
2023-04-02T10:11:21.750Z,9.30
2023-04-02T10:14:30.527Z,7.20
2023-04-02T10:17:01.693Z,8.13
2023-04-02T10:19:33.232Z,8.35
2023-04-02T10:22:04.249Z,8.48
2023-04-02T10:24:30.931Z,7.35
2023-04-02T10:27:18.364Z,7.82
2023-04-02T10:29:52.639Z,7.80
2023-04-02T10:32:46.858Z,7.50
2023-04-02T10:35:47.312Z,7.68
2023-04-02T10:38:22.950Z,6.68
2023-04-02T10:40:57.409Z,9.68
2023-04-02T10:43:46.766Z,7.90
2023-04-02T10:46:25.134Z,7.15
2023-04-02T10:49:10.557Z,9.23
2023-04-02T10:51:37.063Z,8.35
2023-04-02T10:54:23.836Z,9.52
2023-04-02T10:56:53.358Z,9.07
2023-04-02T10:59:24.772Z,8.98
2023-04-02T11:01:54.159Z,9.00
2023-04-02T11:04:31.169Z,9.50
2023-04-02T11:07:19.278Z,8.00
2023-04-02T11:09:50.821Z,8.88
2023-04-02T11:12:27.370Z,7.22
2023-04-02T11:14:56.165Z,7.30
2023-04-02T11:17:24.458Z,7.65
2023-04-02T11:19:51.108Z,7.65
2023-04-02T11:22:23.774Z,6.63
2023-04-02T11:24:55.042Z,8.05
2023-04-02T11:27:26.750Z,6.78
2023-04-02T11:30:18.044Z,6.28
2023-04-02T11:32:49.322Z,7.72
2023-04-02T11:35:31.424Z,6.35
2023-04-02T11:38:04.222Z,8.85
2023-04-02T11:40:44.612Z,9.43
2023-04-02T11:43:33.230Z,9.02
2023-04-02T11:46:00.152Z,7.80
2023-04-02T11:48:29.782Z,9.10
2023-04-02T11:50:56.926Z,8.50
2023-04-02T11:53:32.766Z,6.55
2023-04-02T11:56:10.268Z,6.93
2023-04-02T11:58:55.388Z,7.07
2023-04-02T12:01:32.857Z,7.03
2023-04-02T12:04:02.346Z,6.60
2023-04-02T12:06:47.151Z,6.40
2023-04-02T12:09:22.437Z,6.85
2023-04-02T12:11:51.994Z,6.10
2023-04-02T12:14:37.382Z,6.22
2023-04-02T12:17:13.781Z,6.68
2023-04-02T12:19:40.672Z,6.05
2023-04-02T12:22:21.968Z,7.13
2023-04-02T12:24:49.492Z,5.80
2023-04-02T12:27:27.584Z,5.57
2023-04-02T12:29:57.173Z,8.57
2023-04-02T12:32:29.896Z,11.98
2023-04-02T12:35:04.618Z,12.23
2023-04-02T12:37:31.757Z,14.35
2023-04-02T12:40:16.207Z,16.25
2023-04-02T12:42:42.795Z,15.68
2023-04-02T12:45:29.571Z,16.30
2023-04-02T12:47:57.740Z,17.23
2023-04-02T12:50:24.456Z,17.35
2023-04-02T12:52:54.858Z,18.27
2023-04-02T12:55:24.581Z,17.33
2023-04-02T12:57:59.529Z,16.15
2023-04-02T13:00:26.096Z,17.25
2023-04-02T13:03:16.296Z,18.92
2023-04-02T13:05:54.540Z,18.45
2023-04-02T13:08:41.480Z,17.02
2023-04-02T13:11:08.359Z,15.73
2023-04-02T13:13:38.286Z,16.90
2023-04-02T13:16:26.480Z,19.17
2023-04-02T13:19:18.025Z,18.52
2023-04-02T13:21:45.550Z,19.58
2023-04-02T13:24:41.285Z,19.77
2023-04-02T13:27:10.679Z,20.52
2023-04-02T13:29:37.250Z,19.63
2023-04-02T13:32:12.219Z,21.10
2023-04-02T13:34:38.730Z,20.23
2023-04-02T13:37:05.431Z,21.05
2023-04-02T13:39:32.020Z,21.00
2023-04-02T13:42:03.450Z,23.13
2023-04-02T13:44:35.728Z,16.67
2023-04-02T13:47:02.450Z,17.48
2023-04-02T13:49:29.524Z,18.92
2023-04-02T13:51:59.206Z,20.27
2023-04-02T13:54:33.809Z,18.00
2023-04-02T13:57:00.772Z,19.67
2023-04-02T13:59:27.565Z,19.38
2023-04-02T14:01:58.884Z,19.15
2023-04-02T14:04:29.220Z,17.15
2023-04-02T14:07:30.663Z,17.30
2023-04-02T14:10:01.930Z,16.35
2023-04-02T14:12:53.348Z,17.98
2023-04-02T14:15:33.142Z,17.15
2023-04-02T14:18:39.324Z,15.52
2023-04-02T14:21:34.517Z,14.43
2023-04-02T14:24:24.221Z,13.95
2023-04-02T14:27:27.672Z,11.32
2023-04-02T14:30:11.351Z,9.90
2023-04-02T14:33:13.777Z,9.95
2023-04-02T14:35:54.607Z,8.65
2023-04-02T14:38:40.506Z,8.75
2023-04-02T14:41:23.471Z,7.97
2023-04-02T14:43:58.231Z,8.43
2023-04-02T14:46:30.418Z,8.43
2023-04-02T14:49:09.057Z,10.75
2023-04-02T14:51:43.401Z,8.95
2023-04-02T14:54:35.497Z,10.38
2023-04-02T14:57:21.546Z,7.68
2023-04-02T14:59:57.018Z,10.65
2023-04-02T15:02:37.488Z,9.38
2023-04-02T15:05:41.423Z,8.68
2023-04-02T15:08:19.332Z,9.13
2023-04-02T15:10:54.262Z,9.77
2023-04-02T15:13:43.822Z,10.00
2023-04-02T15:16:14.837Z,11.27
2023-04-02T15:18:41.401Z,12.63
2023-04-02T15:21:49.829Z,11.73
2023-04-02T15:24:27.443Z,11.55
2023-04-02T15:27:25.949Z,12.40
2023-04-02T15:30:14.953Z,12.30
2023-04-02T15:32:43.979Z,13.43
2023-04-02T15:35:29.109Z,14.73
2023-04-02T15:37:58.554Z,13.23
2023-04-02T15:40:51.612Z,11.90
2023-04-02T15:43:28.116Z,12.52
2023-04-02T15:46:16.321Z,12.95
2023-04-02T15:49:08.507Z,10.60
2023-04-02T15:51:51.341Z,15.07
2023-04-02T15:54:33.254Z,12.48
2023-04-02T15:57:08.578Z,10.10
2023-04-02T16:00:03.059Z,10.80
2023-04-02T16:02:50.842Z,12.82
2023-04-02T16:05:43.509Z,12.77
2023-04-02T16:08:18.677Z,12.93
2023-04-02T16:10:45.631Z,15.32
2023-04-02T16:13:36.943Z,15.30
2023-04-02T16:16:13.556Z,15.70
2023-04-02T16:19:18.562Z,13.75
2023-04-02T16:21:56.874Z,13.55
2023-04-02T16:24:23.515Z,12.18
2023-04-02T16:26:59.166Z,13.00
2023-04-02T16:29:35.586Z,12.35
2023-04-02T16:32:36.116Z,12.13
2023-04-02T16:35:38.152Z,11.07
2023-04-02T16:38:11.933Z,10.98
2023-04-02T16:41:06.782Z,13.25
2023-04-02T16:43:41.163Z,12.45
2023-04-02T16:46:13.545Z,12.25
2023-04-02T16:49:04.854Z,12.38
2023-04-02T16:51:42.926Z,11.02
2023-04-02T16:54:23.090Z,10.60
2023-04-02T16:56:52.631Z,11.98
2023-04-02T16:59:37.767Z,12.68
2023-04-02T17:02:31.278Z,15.27
2023-04-02T17:05:04.265Z,15.43
2023-04-02T17:08:15.314Z,15.43
2023-04-02T17:10:44.789Z,18.00
2023-04-02T17:13:33.029Z,16.77
2023-04-02T17:16:20.031Z,15.57
2023-04-02T17:18:52.396Z,18.90
2023-04-02T17:21:24.172Z,15.75
2023-04-02T17:24:44.137Z,15.38
2023-04-02T17:27:13.480Z,18.30
2023-04-02T17:29:43.325Z,17.92
2023-04-02T17:32:32.546Z,16.05
2023-04-02T17:35:33.147Z,17.92
2023-04-02T17:38:10.540Z,18.88
2023-04-02T17:40:53.694Z,20.65
2023-04-02T17:43:47.684Z,19.08
2023-04-02T17:46:23.563Z,18.60
2023-04-02T17:52:01.042Z,19.00
2023-04-02T17:55:05.188Z,18.23
2023-04-02T17:58:09.588Z,23.35
2023-04-02T18:00:44.929Z,18.45
2023-04-02T18:03:40.049Z,23.58
2023-04-02T18:06:34.497Z,23.92
2023-04-02T18:09:19.801Z,21.58
2023-04-02T18:12:01.778Z,19.88
2023-04-02T18:14:37.901Z,23.90
2023-04-02T18:17:28.505Z,20.20
2023-04-02T18:20:14.959Z,21.70
2023-04-02T18:25:27.663Z,24.52
2023-04-02T18:28:35.527Z,28.00
2023-04-02T18:31:27.195Z,28.73
2023-04-02T18:34:31.025Z,30.52
2023-04-02T18:37:21.686Z,28.73
2023-04-02T18:40:06.982Z,29.63
2023-04-02T18:43:00.958Z,28.80
2023-04-02T18:46:13.342Z,35.20
2023-04-02T18:48:46.484Z,32.55
2023-04-02T18:51:22.524Z,34.22
2023-04-02T18:53:53.485Z,30.30
2023-04-02T18:56:22.263Z,29.33
2023-04-02T18:58:53.081Z,33.17
2023-04-02T19:01:30.618Z,27.08
2023-04-02T19:04:03.955Z,27.58
2023-04-02T19:06:42.396Z,25.45
2023-04-02T19:09:20.756Z,21.17
2023-04-02T19:11:48.863Z,19.38
2023-04-02T19:14:20.117Z,17.33
2023-04-02T19:17:23.012Z,15.13
2023-04-02T19:20:21.770Z,14.98
2023-04-02T19:23:01.765Z,14.07
2023-04-02T19:25:41.562Z,13.95
2023-04-02T19:28:33.869Z,16.58
2023-04-02T19:31:18.594Z,13.93
2023-04-02T19:33:55.707Z,14.43
2023-04-02T19:36:47.223Z,13.90
2023-04-02T19:39:30.109Z,15.75
2023-04-02T19:42:16.883Z,16.05
2023-04-02T19:44:48.253Z,15.88
2023-04-02T19:47:16.382Z,15.20
2023-04-02T19:49:43.119Z,14.77
2023-04-02T19:52:09.891Z,15.30
2023-04-02T19:54:38.369Z,16.08
2023-04-02T19:57:05.503Z,14.57
2023-04-02T19:59:32.229Z,14.43
2023-04-02T20:01:59.041Z,14.27
2023-04-02T20:04:25.740Z,14.38
2023-04-02T20:06:52.535Z,14.48
2023-04-02T20:09:19.126Z,13.85
2023-04-02T20:11:45.866Z,11.50
2023-04-02T20:14:12.529Z,15.45
2023-04-02T20:16:39.196Z,11.00
2023-04-02T20:19:06.055Z,13.65
2023-04-02T20:21:38.153Z,13.38
2023-04-02T20:24:08.875Z,12.63
2023-04-02T20:26:36.205Z,13.50
2023-04-02T20:29:03.012Z,13.80
2023-04-02T20:31:29.689Z,13.07
2023-04-02T20:33:58.245Z,12.65
2023-04-02T20:36:25.283Z,13.57
2023-04-02T20:38:52.122Z,11.30
2023-04-02T20:41:19.228Z,12.73
2023-04-02T20:43:45.958Z,10.98
2023-04-02T20:46:12.838Z,10.80
2023-04-02T20:48:40.419Z,10.93
2023-04-02T20:51:08.729Z,11.80
2023-04-02T20:53:36.901Z,11.88
2023-04-02T20:56:12.509Z,9.38
2023-04-02T20:58:40.053Z,9.45
2023-04-02T21:01:11.929Z,9.30
2023-04-02T21:03:40.048Z,8.40
2023-04-02T21:06:12.801Z,7.60
2023-04-02T21:08:39.620Z,8.18
2023-04-02T21:11:06.997Z,7.47
2023-04-02T21:13:36.193Z,7.75
2023-04-02T21:16:05.040Z,6.10
2023-04-02T21:18:32.410Z,6.68
2023-04-02T21:21:05.372Z,7.03
2023-04-02T21:23:32.435Z,6.57
2023-04-02T21:26:06.234Z,9.27
2023-04-02T21:28:34.727Z,8.10
2023-04-02T21:31:13.925Z,8.05
2023-04-02T21:33:43.186Z,7.55
2023-04-02T21:36:12.410Z,7.40
2023-04-02T21:39:19.645Z,9.35
2023-04-02T21:41:50.042Z,9.55
2023-04-02T21:44:18.491Z,8.93
2023-04-02T21:46:45.764Z,8.75
2023-04-02T21:49:14.605Z,10.25
2023-04-02T21:51:42.153Z,8.60
2023-04-02T21:54:09.095Z,7.18
2023-04-02T21:56:41.013Z,7.35
2023-04-02T21:59:09.549Z,8.68
2023-04-02T22:01:41.800Z,7.72
2023-04-02T22:04:11.404Z,9.35
2023-04-02T22:06:40.649Z,11.82
2023-04-02T22:09:13.608Z,9.35
2023-04-02T22:11:54.017Z,9.50
2023-04-02T22:14:21.205Z,10.35
2023-04-02T22:16:47.935Z,10.05
2023-04-02T22:19:16.808Z,9.98
2023-04-02T22:21:43.672Z,10.82
2023-04-02T22:24:13.461Z,10.63
2023-04-02T22:26:41.001Z,7.57
2023-04-02T22:29:08.113Z,8.27
2023-04-02T22:31:35.387Z,9.40
2023-04-02T22:34:03.894Z,9.57
2023-04-02T22:36:30.848Z,8.85
2023-04-02T22:38:58.201Z,10.32
2023-04-02T22:41:27.619Z,9.05
2023-04-02T22:43:59.135Z,11.05
2023-04-02T22:46:26.913Z,10.15
2023-04-02T22:48:54.535Z,9.93
2023-04-02T22:51:22.342Z,10.98
2023-04-02T22:53:50.270Z,9.90
2023-04-02T22:56:20.057Z,11.10
2023-04-02T22:58:46.656Z,12.13
2023-04-02T23:01:17.433Z,11.45
2023-04-02T23:03:44.296Z,10.88
2023-04-02T23:06:13.205Z,12.38
2023-04-02T23:08:40.589Z,10.77
2023-04-02T23:11:09.901Z,10.57
2023-04-02T23:13:37.185Z,11.00
2023-04-02T23:16:06.485Z,11.43
2023-04-02T23:18:37.281Z,12.02
2023-04-02T23:21:05.721Z,11.40
2023-04-02T23:23:32.946Z,12.68
2023-04-02T23:26:11.483Z,9.70
2023-04-02T23:28:39.304Z,12.20
2023-04-02T23:31:07.943Z,9.30
2023-04-02T23:33:35.516Z,11.63
2023-04-02T23:36:10.807Z,11.52
2023-04-02T23:38:37.403Z,10.48
2023-04-02T23:41:04.065Z,10.57
2023-04-02T23:43:30.848Z,11.00
2023-04-02T23:45:57.731Z,11.63
2023-04-02T23:48:24.263Z,10.52
2023-04-02T23:50:50.956Z,9.90
2023-04-02T23:53:18.727Z,9.68
2023-04-02T23:55:45.798Z,11.90
2023-04-02T23:58:12.427Z,11.35
